createdAt,value
2023-04-05T00:01:07.632Z,101988.94
2023-04-05T00:03:37.177Z,101986.44
2023-04-05T00:06:05.862Z,101988.38
2023-04-05T00:08:33.696Z,101976.78
2023-04-05T00:11:01.958Z,101975.16
2023-04-05T00:13:30.387Z,101984.34
2023-04-05T00:16:01.300Z,101971.81
2023-04-05T00:18:34.416Z,101969.22
2023-04-05T00:21:03.688Z,101978.66
2023-04-05T00:23:37.510Z,101959.78
2023-04-05T00:26:05.507Z,101965.06
2023-04-05T00:28:33.291Z,101957.88
2023-04-05T00:31:01.896Z,101968.81
2023-04-05T00:33:29.800Z,101971.59
2023-04-05T00:35:57.894Z,101966.25
2023-04-05T00:38:27.094Z,101964.44
2023-04-05T00:40:54.984Z,101970.88
2023-04-05T00:43:22.995Z,101969.13
2023-04-05T00:45:51.018Z,101964.63
2023-04-05T00:48:18.908Z,101969.25
2023-04-05T00:50:49.983Z,101961.09
2023-04-05T00:53:20.659Z,101960.22
2023-04-05T00:55:50.808Z,101959.44
2023-04-05T00:58:21.671Z,101952.31
2023-04-05T01:01:01.491Z,101951.38
2023-04-05T01:03:34.562Z,101955.97
2023-04-05T01:06:11.300Z,101959.66
2023-04-05T01:08:47.014Z,101958.78
2023-04-05T01:11:18.785Z,101957.09
2023-04-05T01:13:47.846Z,101960.78
2023-04-05T01:16:16.078Z,101966.28
2023-04-05T01:18:47.217Z,101956.38
2023-04-05T01:21:49.536Z,101943.81
2023-04-05T01:24:30.614Z,101938.38
2023-04-05T01:27:05.726Z,101934.72
2023-04-05T01:29:51.402Z,101932.94
2023-04-05T01:32:40.772Z,101937.66
2023-04-05T01:35:16.641Z,101936.84
2023-04-05T01:37:49.777Z,101927.91
2023-04-05T01:40:17.933Z,101938.75
2023-04-05T01:42:47.106Z,101935.09
2023-04-05T01:45:16.330Z,101928.78
2023-04-05T01:47:44.116Z,101937.00
2023-04-05T01:50:12.201Z,101933.38
2023-04-05T01:52:40.044Z,101919.81
2023-04-05T01:55:08.521Z,101918.88
2023-04-05T01:57:37.720Z,101924.38
2023-04-05T02:00:06.581Z,101919.81
2023-04-05T02:02:42.158Z,101926.13
2023-04-05T02:05:10.687Z,101916.31
2023-04-05T02:07:38.558Z,101914.50
2023-04-05T02:10:07.413Z,101921.81
2023-04-05T02:12:35.269Z,101910.16
2023-04-05T02:15:04.052Z,101918.38
2023-04-05T02:17:34.182Z,101911.16
2023-04-05T02:20:05.369Z,101910.28
2023-04-05T02:22:34.028Z,101908.56
2023-04-05T02:25:03.479Z,101910.41
2023-04-05T02:27:31.400Z,101918.59
2023-04-05T02:29:59.177Z,101917.72
2023-04-05T02:32:27.042Z,101920.47
2023-04-05T02:34:55.214Z,101915.09
2023-04-05T02:37:27.303Z,101916.00
2023-04-05T02:39:55.263Z,101914.31
2023-04-05T02:42:23.213Z,101914.41
2023-04-05T02:44:52.368Z,101923.41
2023-04-05T02:47:22.299Z,101909.09
2023-04-05T02:49:59.403Z,101914.53
2023-04-05T02:52:34.267Z,101915.66
2023-04-05T02:55:02.193Z,101917.47
2023-04-05T02:57:32.356Z,101909.41
2023-04-05T03:00:23.495Z,101913.13
2023-04-05T03:02:53.068Z,101907.78
2023-04-05T03:05:22.606Z,101908.72
2023-04-05T03:07:54.819Z,101917.03
2023-04-05T03:10:29.262Z,101908.06
2023-04-05T03:13:04.030Z,101917.16
2023-04-05T03:15:33.346Z,101906.31
2023-04-05T03:18:06.532Z,101906.47
2023-04-05T03:20:40.099Z,101912.84
2023-04-05T03:23:12.278Z,101903.91
2023-04-05T03:25:41.627Z,101908.50
2023-04-05T03:28:10.476Z,101906.81
2023-04-05T03:30:42.434Z,101900.66
2023-04-05T03:33:18.281Z,101896.19
2023-04-05T03:35:49.578Z,101907.97
2023-04-05T03:38:19.549Z,101899.84
2023-04-05T03:41:06.824Z,101903.75
2023-04-05T03:43:36.096Z,101894.72
2023-04-05T03:46:03.900Z,101893.91
2023-04-05T03:48:32.463Z,101894.91
2023-04-05T03:51:00.388Z,101886.88
2023-04-05T03:53:29.637Z,101886.00
2023-04-05T03:55:58.401Z,101889.78
2023-04-05T03:58:41.680Z,101884.66
2023-04-05T04:01:10.757Z,101887.38
2023-04-05T04:03:39.383Z,101887.38
2023-04-05T04:06:08.431Z,101886.53
2023-04-05T04:08:37.761Z,101887.56
2023-04-05T04:11:06.489Z,101887.72
2023-04-05T04:13:40.255Z,101886.03
2023-04-05T04:16:19.788Z,101895.16
2023-04-05T04:18:56.461Z,101888.94
2023-04-05T04:21:52.022Z,101889.09
2023-04-05T04:24:40.771Z,101891.91
2023-04-05T04:27:29.712Z,101892.97
2023-04-05T04:30:16.989Z,101893.03
2023-04-05T04:33:09.085Z,101888.59
2023-04-05T04:35:39.312Z,101890.59
2023-04-05T04:38:34.909Z,101877.16
2023-04-05T04:41:22.865Z,101891.66
2023-04-05T04:44:14.622Z,101880.97
2023-04-05T04:47:02.397Z,101892.00
2023-04-05T04:49:47.405Z,101891.06
2023-04-05T04:52:15.369Z,101889.34
2023-04-05T04:54:43.416Z,101888.53
2023-04-05T04:57:12.701Z,101893.09
2023-04-05T04:59:40.461Z,101895.06
2023-04-05T05:02:11.079Z,101894.22
2023-04-05T05:04:41.646Z,101888.97
2023-04-05T05:07:10.849Z,101894.28
2023-04-05T05:09:38.712Z,101899.81
2023-04-05T05:12:07.114Z,101891.75
2023-04-05T05:14:36.691Z,101888.22
2023-04-05T05:17:06.436Z,101890.09
2023-04-05T05:19:34.338Z,101891.84
2023-04-05T05:22:02.117Z,101892.00
2023-04-05T05:24:29.982Z,101898.28
2023-04-05T05:26:57.990Z,101891.13
2023-04-05T05:29:25.743Z,101892.13
2023-04-05T05:31:55.115Z,101895.66
2023-04-05T05:34:23.160Z,101893.03
2023-04-05T05:36:55.584Z,101885.78
2023-04-05T05:39:24.353Z,101885.78
2023-04-05T05:41:52.224Z,101892.06
2023-04-05T05:44:20.156Z,101892.00
2023-04-05T05:46:48.149Z,101897.44
2023-04-05T05:49:18.019Z,101892.75
2023-04-05T05:51:46.426Z,101892.75
2023-04-05T05:54:14.409Z,101888.16
2023-04-05T05:56:42.258Z,101897.00
2023-04-05T05:59:10.606Z,101894.22
2023-04-05T06:01:42.447Z,101901.28
2023-04-05T06:04:10.697Z,101905.63
2023-04-05T06:06:40.478Z,101899.13
2023-04-05T06:09:08.393Z,101907.09
2023-04-05T06:11:38.996Z,101904.16
2023-04-05T06:14:11.691Z,101898.44
2023-04-05T06:16:39.644Z,101899.91
2023-04-05T06:19:07.584Z,101896.78
2023-04-05T06:21:35.469Z,101894.56
2023-04-05T06:24:05.256Z,101900.28
2023-04-05T06:26:33.107Z,101889.75
2023-04-05T06:29:00.952Z,101895.53
2023-04-05T06:31:32.733Z,101893.94
2023-04-05T06:34:00.771Z,101887.91
2023-04-05T06:36:31.635Z,101891.00
2023-04-05T06:38:59.545Z,101884.97
2023-04-05T06:41:29.910Z,101897.78
2023-04-05T06:43:57.932Z,101887.19
2023-04-05T06:46:26.633Z,101892.63
2023-04-05T06:48:54.922Z,101885.38
2023-04-05T06:51:22.846Z,101898.16
2023-04-05T06:53:50.672Z,101886.59
2023-04-05T06:56:18.628Z,101894.75
2023-04-05T06:58:47.867Z,101894.78
2023-04-05T07:01:17.498Z,101899.34
2023-04-05T07:03:45.525Z,101889.63
2023-04-05T07:06:13.431Z,101895.69
2023-04-05T07:08:41.911Z,101896.56
2023-04-05T07:11:09.818Z,101880.13
2023-04-05T07:13:37.733Z,101869.13
2023-04-05T07:16:07.792Z,101874.00
2023-04-05T07:18:35.977Z,101876.09
2023-04-05T07:21:04.742Z,101874.13
2023-04-05T07:23:32.717Z,101879.31
2023-04-05T07:26:04.454Z,101867.00
2023-04-05T07:28:33.817Z,101875.81
2023-04-05T07:31:02.388Z,101878.59
2023-04-05T07:33:31.695Z,101877.25
2023-04-05T07:35:59.762Z,101869.72
2023-04-05T07:38:29.294Z,101878.59
2023-04-05T07:40:57.451Z,101872.47
2023-04-05T07:43:25.828Z,101869.22
2023-04-05T07:45:54.592Z,101862.75
2023-04-05T07:48:22.588Z,101872.53
2023-04-05T07:50:52.985Z,101870.00
2023-04-05T07:53:21.172Z,101865.78
2023-04-05T07:55:49.339Z,101877.41
2023-04-05T07:58:17.621Z,101878.84
2023-04-05T08:00:45.497Z,101875.84
2023-04-05T08:03:13.519Z,101867.50
2023-04-05T08:05:41.471Z,101872.75
2023-04-05T08:08:11.190Z,101872.50
2023-04-05T08:10:40.462Z,101874.25
2023-04-05T08:13:08.491Z,101871.66
2023-04-05T08:15:36.475Z,101874.41
2023-04-05T08:18:04.788Z,101880.88
2023-04-05T08:20:32.589Z,101878.25
2023-04-05T08:23:00.366Z,101884.81
2023-04-05T08:25:29.735Z,101878.47
2023-04-05T08:27:57.570Z,101882.78
2023-04-05T08:30:25.321Z,101870.38
2023-04-05T08:32:53.283Z,101871.75
2023-04-05T08:35:21.235Z,101873.81
2023-04-05T08:37:49.068Z,101868.72
2023-04-05T08:40:17.660Z,101874.41
2023-04-05T08:42:53.315Z,101871.66
2023-04-05T08:45:24.075Z,101874.41
2023-04-05T08:47:58.305Z,101868.94
2023-04-05T08:50:27.338Z,101878.03
2023-04-05T08:52:55.741Z,101866.84
2023-04-05T08:55:23.876Z,101866.59
2023-04-05T08:57:59.571Z,101865.38
2023-04-05T09:00:29.007Z,101863.16
2023-04-05T09:05:45.297Z,101865.13
2023-04-05T09:08:14.133Z,101855.66
2023-04-05T09:10:42.571Z,101852.56
2023-04-05T09:13:12.049Z,101860.09
2023-04-05T09:15:40.376Z,101860.72
2023-04-05T09:18:19.097Z,101859.50
2023-04-05T09:20:58.023Z,101862.75
2023-04-05T09:23:26.255Z,101857.38
2023-04-05T09:25:54.157Z,101854.16
2023-04-05T09:28:23.806Z,101857.31
2023-04-05T09:30:51.672Z,101850.69
2023-04-05T09:33:22.019Z,101851.31
2023-04-05T09:35:52.100Z,101851.59
2023-04-05T09:38:21.305Z,101843.13
2023-04-05T09:40:51.303Z,101848.13
2023-04-05T09:43:41.054Z,101846.63
2023-04-05T09:46:09.033Z,101840.34
2023-04-05T09:48:49.745Z,101844.16
2023-04-05T09:51:18.514Z,101846.28
2023-04-05T09:53:59.918Z,101845.44
2023-04-05T09:56:28.589Z,101846.81
2023-04-05T09:59:02.456Z,101845.84
2023-04-05T10:01:32.376Z,101844.44
2023-04-05T10:04:01.333Z,101844.56
2023-04-05T10:06:47.495Z,101835.56
2023-04-05T10:09:15.612Z,101826.81
2023-04-05T10:11:45.112Z,101829.38
2023-04-05T10:14:14.334Z,101830.50
2023-04-05T10:16:48.732Z,101836.84
2023-04-05T10:19:26.434Z,101823.34
2023-04-05T10:21:55.726Z,101828.44
2023-04-05T10:24:36.630Z,101821.69
2023-04-05T10:27:09.305Z,101816.81
2023-04-05T10:29:52.503Z,101811.91
2023-04-05T10:32:30.097Z,101818.63
2023-04-05T10:35:08.742Z,101815.63
2023-04-05T10:37:48.259Z,101807.81
2023-04-05T10:40:19.835Z,101805.56
2023-04-05T10:42:49.642Z,101808.78
2023-04-05T10:45:22.399Z,101808.22
2023-04-05T10:47:56.408Z,101806.84
2023-04-05T10:50:26.115Z,101804.81
2023-04-05T10:52:54.278Z,101795.53
2023-04-05T10:55:22.565Z,101795.16
2023-04-05T10:57:52.439Z,101798.63
2023-04-05T11:00:57.931Z,101788.03
2023-04-05T11:03:58.406Z,101790.47
2023-04-05T11:06:49.506Z,101789.59
2023-04-05T11:13:11.105Z,101780.06
2023-04-05T11:15:40.581Z,101777.69
2023-04-05T11:18:12.470Z,101775.09
2023-04-05T11:20:48.676Z,101778.84
2023-04-05T11:23:18.688Z,101771.59
2023-04-05T11:25:53.049Z,101770.31
2023-04-05T11:28:31.897Z,101771.03
2023-04-05T11:31:13.840Z,101769.03
2023-04-05T11:34:10.190Z,101754.53
2023-04-05T11:36:41.819Z,101766.75
2023-04-05T11:39:29.220Z,101764.88
2023-04-05T11:42:08.426Z,101761.72
2023-04-05T11:44:44.690Z,101757.81
2023-04-05T11:47:13.462Z,101750.72
2023-04-05T11:49:43.395Z,101755.56
2023-04-05T11:52:12.979Z,101754.53
2023-04-05T11:54:45.964Z,101751.63
2023-04-05T11:57:16.160Z,101744.72
2023-04-05T11:59:44.781Z,101747.19
2023-04-05T12:02:12.664Z,101741.44
2023-04-05T12:04:42.016Z,101745.50
2023-04-05T12:07:14.898Z,101743.22
2023-04-05T12:10:02.431Z,101739.91
2023-04-05T12:12:35.883Z,101725.41
2023-04-05T12:15:04.806Z,101735.84
2023-04-05T12:17:40.236Z,101720.84
2023-04-05T12:20:14.081Z,101724.22
2023-04-05T12:22:43.517Z,101723.03
2023-04-05T12:25:12.099Z,101715.66
2023-04-05T12:27:40.788Z,101713.75
2023-04-05T12:30:10.961Z,101711.75
2023-04-05T12:32:42.674Z,101709.88
2023-04-05T12:35:18.190Z,101706.25
2023-04-05T12:37:46.546Z,101705.22
2023-04-05T12:40:15.060Z,101702.19
2023-04-05T12:42:43.275Z,101702.34
2023-04-05T12:45:13.446Z,101692.03
2023-04-05T12:47:52.743Z,101693.78
2023-04-05T12:50:28.770Z,101690.88
2023-04-05T12:52:57.842Z,101693.66
2023-04-05T12:55:26.814Z,101688.88
2023-04-05T12:57:55.899Z,101681.47
2023-04-05T13:00:26.687Z,101678.41
2023-04-05T13:02:56.007Z,101671.91
2023-04-05T13:05:27.181Z,101674.38
2023-04-05T13:07:55.771Z,101671.63
2023-04-05T13:10:25.562Z,101668.56
2023-04-05T13:12:53.622Z,101668.44
2023-04-05T13:15:21.890Z,101659.16
2023-04-05T13:17:52.011Z,101654.38
2023-04-05T13:20:20.375Z,101653.38
2023-04-05T13:22:49.625Z,101654.97
2023-04-05T13:25:17.833Z,101656.13
2023-04-05T13:27:45.933Z,101653.50
2023-04-05T13:30:14.319Z,101648.75
2023-04-05T13:32:42.471Z,101642.34
2023-04-05T13:35:11.176Z,101644.09
2023-04-05T13:37:39.561Z,101650.47
2023-04-05T13:40:11.705Z,101642.03
2023-04-05T13:42:39.665Z,101636.97
2023-04-05T13:45:08.479Z,101634.97
2023-04-05T13:47:37.010Z,101631.31
2023-04-05T13:50:05.633Z,101632.06
2023-04-05T13:52:41.160Z,101626.56
2023-04-05T13:55:11.480Z,101628.44
2023-04-05T13:57:39.385Z,101624.06
2023-04-05T14:00:09.027Z,101632.06
2023-04-05T14:02:39.909Z,101630.59
2023-04-05T14:05:08.989Z,101616.69
2023-04-05T14:07:37.653Z,101612.19
2023-04-05T14:10:07.252Z,101604.19
2023-04-05T14:12:37.146Z,101605.94
2023-04-05T14:15:05.885Z,101600.72
2023-04-05T14:17:33.938Z,101602.75
2023-04-05T14:20:01.925Z,101595.63
2023-04-05T14:22:29.772Z,101593.19
2023-04-05T14:24:57.831Z,101591.56
2023-04-05T14:27:26.920Z,101589.97
2023-04-05T14:29:57.458Z,101588.22
2023-04-05T14:32:25.678Z,101585.03
2023-04-05T14:34:53.806Z,101584.28
2023-04-05T14:37:21.953Z,101576.34
2023-04-05T14:39:49.864Z,101577.34
2023-04-05T14:42:18.031Z,101570.22
2023-04-05T14:44:48.045Z,101564.97
2023-04-05T14:47:18.402Z,101568.59
2023-04-05T14:49:46.481Z,101561.66
2023-04-05T14:52:14.464Z,101555.53
2023-04-05T14:54:43.351Z,101553.78
2023-04-05T14:57:11.324Z,101553.22
2023-04-05T14:59:39.552Z,101554.63
2023-04-05T15:02:07.933Z,101549.13
2023-04-05T15:04:37.782Z,101544.16
2023-04-05T15:07:05.785Z,101550.38
2023-04-05T15:09:33.992Z,101549.34
2023-04-05T15:12:02.324Z,101554.41
2023-04-05T15:14:32.085Z,101558.59
2023-04-05T15:17:00.937Z,101554.50
2023-04-05T15:19:30.490Z,101548.56
2023-04-05T15:22:00.106Z,101537.81
2023-04-05T15:24:28.061Z,101544.75
2023-04-05T15:27:02.054Z,101540.50
2023-04-05T15:29:31.102Z,101536.31
2023-04-05T15:31:59.057Z,101542.03
2023-04-05T15:34:27.212Z,101532.22
2023-04-05T15:36:55.953Z,101530.59
2023-04-05T15:39:25.531Z,101525.22
2023-04-05T15:41:53.752Z,101523.78
2023-04-05T15:44:21.831Z,101517.66
2023-04-05T15:46:49.911Z,101526.91
2023-04-05T15:49:18.023Z,101515.34
2023-04-05T15:51:46.127Z,101516.34
2023-04-05T15:54:18.576Z,101523.84
2023-04-05T17:37:37.453Z,101491.91
2023-04-05T17:40:06.762Z,101497.28
2023-04-05T17:42:35.174Z,101496.50
2023-04-05T17:45:03.598Z,101495.53
2023-04-05T17:47:31.608Z,101501.13
2023-04-05T17:49:59.832Z,101498.50
2023-04-05T17:52:27.886Z,101494.00
2023-04-05T17:54:57.329Z,101495.88
2023-04-05T17:57:25.329Z,101497.03
2023-04-05T17:59:53.594Z,101495.41
2023-04-05T18:02:21.758Z,101500.25
2023-04-05T18:04:49.940Z,101505.00
2023-04-05T18:07:18.020Z,101501.53
2023-04-05T18:09:46.383Z,101498.03
2023-04-05T18:12:15.744Z,101500.03
2023-04-05T18:14:43.758Z,101500.41
2023-04-05T18:17:11.785Z,101491.56
2023-04-05T18:19:39.807Z,101501.78
2023-04-05T18:22:07.795Z,101510.25
2023-04-05T18:24:35.821Z,101501.38
2023-04-05T18:27:03.875Z,101501.66
2023-04-05T18:29:37.789Z,101505.38
2023-04-05T18:32:05.997Z,101504.84
2023-04-05T18:34:34.508Z,101503.25
2023-04-05T18:37:02.722Z,101513.59
2023-04-05T18:39:30.768Z,101511.09
2023-04-05T18:41:59.131Z,101508.63
2023-04-05T18:44:27.350Z,101517.94
2023-04-05T18:46:57.123Z,101513.56
2023-04-05T18:49:25.472Z,101524.03
2023-04-05T18:51:55.684Z,101521.53
2023-04-05T18:54:23.872Z,101522.78
2023-04-05T18:56:52.000Z,101526.63
2023-04-05T18:59:20.182Z,101520.56
2023-04-05T19:01:48.296Z,101527.13
2023-04-05T19:04:17.639Z,101531.75
2023-04-05T19:06:45.622Z,101535.84
2023-04-05T19:09:13.533Z,101539.69
2023-04-05T19:11:41.499Z,101538.06
2023-04-05T19:14:09.508Z,101543.78
2023-04-05T19:16:37.480Z,101550.38
2023-04-05T19:19:06.597Z,101540.66
2023-04-05T19:21:36.217Z,101545.38
2023-04-05T19:24:04.518Z,101541.13
2023-04-05T19:26:33.787Z,101543.25
2023-04-05T19:29:01.844Z,101544.34
2023-04-05T19:31:30.759Z,101540.84
2023-04-05T19:33:58.874Z,101545.72
2023-04-05T19:36:28.051Z,101550.53
2023-04-05T19:38:57.423Z,101542.44
2023-04-05T19:41:26.024Z,101548.16
2023-04-05T19:43:54.085Z,101544.78
2023-04-05T19:46:31.004Z,101541.16
2023-04-05T19:49:08.713Z,101545.16
2023-04-05T19:51:37.490Z,101543.69
2023-04-05T19:54:11.886Z,101541.94
2023-04-05T19:56:40.212Z,101537.81
2023-04-05T19:59:28.246Z,101541.53
2023-04-05T20:01:56.592Z,101537.41
2023-04-05T20:04:26.669Z,101546.63
2023-04-05T20:06:55.953Z,101545.97
2023-04-05T20:09:26.590Z,101537.03
2023-04-05T20:11:57.921Z,101538.22
2023-04-05T20:14:29.090Z,101537.59
2023-04-05T20:16:57.954Z,101533.34
2023-04-05T20:19:29.756Z,101531.59
2023-04-05T20:21:59.225Z,101531.06
2023-04-05T20:24:29.363Z,101535.88
2023-04-05T20:26:57.851Z,101528.16
2023-04-05T20:29:27.660Z,101526.50
2023-04-05T20:32:06.498Z,101522.47
2023-04-05T20:34:38.009Z,101522.19
2023-04-05T20:37:08.202Z,101513.47
2023-04-05T20:39:38.818Z,101514.91
2023-04-05T20:42:07.598Z,101514.72
2023-04-05T20:44:35.560Z,101513.63
2023-04-05T20:47:03.512Z,101515.16
2023-04-05T20:49:31.702Z,101505.56
2023-04-05T20:51:59.889Z,101515.25
2023-04-05T20:54:28.423Z,101506.50
2023-04-05T20:56:57.724Z,101505.19
2023-04-05T20:59:26.196Z,101509.25
2023-04-05T21:01:54.304Z,101497.78
2023-04-05T21:04:22.281Z,101501.81
2023-04-05T21:06:50.202Z,101502.25
2023-04-05T21:09:18.164Z,101497.97
2023-04-05T21:11:46.088Z,101497.44
2023-04-05T21:14:16.220Z,101498.53
2023-04-05T21:16:44.122Z,101491.66
2023-04-05T21:19:12.165Z,101492.72
2023-04-05T21:21:40.188Z,101492.00
2023-04-05T21:24:08.233Z,101485.84
2023-04-05T21:26:36.160Z,101496.88
2023-04-05T21:29:04.042Z,101491.66
2023-04-05T21:31:33.444Z,101496.13
2023-04-05T21:34:01.339Z,101491.84
2023-04-05T21:36:29.292Z,101494.56
2023-04-05T21:38:57.394Z,101490.97
2023-04-05T21:41:25.308Z,101493.81
2023-04-05T21:43:53.260Z,101489.31
2023-04-05T21:46:21.416Z,101489.31
2023-04-05T21:48:50.793Z,101489.22
2023-04-05T21:51:18.711Z,101490.28
2023-04-05T21:53:46.915Z,101485.84
2023-04-05T21:56:15.316Z,101484.00
2023-04-05T21:58:43.244Z,101485.84
2023-04-05T22:01:11.403Z,101486.81
2023-04-05T22:03:43.445Z,101485.06
2023-04-05T22:06:12.985Z,101477.00
2023-04-05T22:08:40.857Z,101476.13
2023-04-05T22:11:08.776Z,101477.09
2023-04-05T22:13:36.662Z,101475.34
2023-04-05T22:16:04.833Z,101473.59
2023-04-05T22:18:32.728Z,101478.31
2023-04-05T22:21:00.768Z,101470.22
2023-04-05T22:23:30.197Z,101473.81
2023-04-05T22:25:58.212Z,101474.91
2023-04-05T22:28:26.137Z,101468.66
2023-04-05T22:30:54.329Z,101466.94
2023-04-05T22:33:22.216Z,101473.38
2023-04-05T22:35:50.394Z,101458.97
2023-04-05T22:38:18.343Z,101462.66
2023-04-05T22:40:47.658Z,101459.06
2023-04-05T22:43:15.554Z,101460.13
2023-04-05T22:45:43.541Z,101466.59
2023-04-05T22:48:11.522Z,101459.50
2023-04-05T22:50:39.538Z,101460.56
2023-04-05T22:53:07.453Z,101462.41
2023-04-05T22:55:37.376Z,101457.19
2023-04-05T22:58:06.945Z,101460.03
2023-04-05T23:00:35.049Z,101457.50
2023-04-05T23:03:03.048Z,101461.28
2023-04-05T23:05:31.473Z,101452.47
2023-04-05T23:07:59.433Z,101455.28
2023-04-05T23:10:27.438Z,101447.28
2023-04-05T23:12:55.697Z,101444.78
2023-04-05T23:15:25.149Z,101445.75
2023-04-05T23:17:53.237Z,101437.03
2023-04-05T23:20:21.285Z,101441.69
2023-04-05T23:22:49.334Z,101441.00
2023-04-05T23:25:17.474Z,101443.09
2023-04-05T23:27:45.437Z,101440.56
2023-04-05T23:30:14.148Z,101440.66
2023-04-05T23:32:43.936Z,101439.13
2023-04-05T23:35:12.085Z,101444.88
2023-04-05T23:37:40.182Z,101437.78
2023-04-05T23:40:09.224Z,101440.72
2023-04-05T23:42:37.187Z,101440.03
2023-04-05T23:45:08.455Z,101443.84
2023-04-05T23:47:38.043Z,101442.47
2023-04-05T23:50:09.224Z,101432.47
2023-04-05T23:52:37.171Z,101438.31
2023-04-05T23:55:06.421Z,101424.78
2023-04-05T23:57:34.377Z,101424.25
